Time;durP1;ratioP1;P1;durP2;ratioP2;P2;SDS_P1;SDS_P2;PMS_P1;PMS_P2;Temp;Humidity;BMP_temperature;BMP_pressure;BME280_temperature;BME280_humidity;BME280_pressure;Samples;Min_cycle;Max_cycle;Signal;HPM_P1;HPM_P2
2023/10/23 00:01:48;;;;;;;7.90;5.55;;;;;;;;;;5077775;28;20157;-86
2023/10/23 00:04:14;;;;;;;7.38;5.40;;;;;;;;;;5095554;28;20053;-85
2023/10/23 00:06:41;;;;;;;6.30;5.13;;;;;;;;;;5095545;28;20040;-85
2023/10/23 00:09:07;;;;;;;7.10;4.85;;;;;;;;;;5078895;28;20486;-85
2023/10/23 00:11:33;;;;;;;6.70;5.55;;;;;;;;;;5078683;28;20059;-85
2023/10/23 00:13:59;;;;;;;8.32;5.90;;;;;;;;;;5095040;28;20039;-84
2023/10/23 00:16:25;;;;;;;5.85;5.28;;;;;;;;;;5095211;28;20058;-85
2023/10/23 00:18:52;;;;;;;7.07;5.38;;;;;;;;;;5095482;28;20464;-86
2023/10/23 00:21:18;;;;;;;6.70;4.85;;;;;;;;;;5078374;28;20514;-86
2023/10/23 00:23:44;;;;;;;9.80;5.97;;;;;;;;;;5078679;28;20451;-84
2023/10/23 00:26:10;;;;;;;6.43;5.32;;;;;;;;;;5078080;28;20036;-86
2023/10/23 00:28:36;;;;;;;9.30;5.57;;;;;;;;;;5061635;28;20040;-86
2023/10/23 00:31:02;;;;;;;7.72;5.93;;;;;;;;;;5078401;28;20510;-84
2023/10/23 00:33:29;;;;;;;8.32;5.05;;;;;;;;;;5095291;28;20105;-85
2023/10/23 00:35:55;;;;;;;7.75;5.63;;;;;;;;;;5094666;28;20072;-85
2023/10/23 00:38:21;;;;;;;8.25;5.68;;;;;;;;;;5094722;28;20043;-84
2023/10/23 00:40:47;;;;;;;10.18;5.78;;;;;;;;;;5094732;28;20052;-84
2023/10/23 00:43:13;;;;;;;8.40;5.65;;;;;;;;;;5078193;28;20418;-84
2023/10/23 00:45:45;;;;;;;6.32;5.60;;;;;;;;;;5077760;28;20043;-84
2023/10/23 00:48:11;;;;;;;7.18;5.47;;;;;;;;;;5094602;28;20044;-85
2023/10/23 00:50:38;;;;;;;11.80;6.40;;;;;;;;;;5077631;28;20044;-84
2023/10/23 00:53:04;;;;;;;9.70;5.35;;;;;;;;;;5094733;28;20500;-85
2023/10/23 00:55:31;;;;;;;10.85;5.65;;;;;;;;;;5094850;28;20069;-84
2023/10/23 00:57:57;;;;;;;7.18;5.60;;;;;;;;;;5094096;28;20039;-84
2023/10/23 01:00:23;;;;;;;6.40;5.50;;;;;;;;;;5094645;28;20044;-84
2023/10/23 01:02:50;;;;;;;6.45;5.80;;;8.10;54.70;;;;;;5095513;28;20522;-84
2023/10/23 01:05:16;;;;;;;6.22;5.32;;;;;;;;;;5058029;28;20035;-84
2023/10/23 01:07:42;;;;;;;7.53;5.80;;;;;;;;;;5057643;28;20044;-85
2023/10/23 01:10:08;;;;;;;7.85;5.63;;;;;;;;;;5094477;28;20085;-85
2023/10/23 01:12:34;;;;;;;8.63;6.20;;;;;;;;;;5060281;28;20047;-84
2023/10/23 01:15:00;;;;;;;8.32;5.93;;;;;;;;;;5060871;28;20074;-85
2023/10/23 01:17:26;;;;;;;11.23;6.55;;;;;;;;;;5094445;28;20044;-85
2023/10/23 01:19:52;;;;;;;8.85;5.50;;;;;;;;;;5077465;28;20053;-84
2023/10/23 01:22:18;;;;;;;10.18;6.85;;;;;;;;;;5077069;28;20093;-84
2023/10/23 01:24:45;;;;;;;8.00;6.28;;;;;;;;;;5077387;28;20047;-85
2023/10/23 01:27:11;;;;;;;7.70;5.80;;;;;;;;;;5077405;28;20075;-85
2023/10/23 01:29:37;;;;;;;8.90;6.20;;;;;;;;;;5059720;28;20167;-84
2023/10/23 01:32:04;;;;;;;11.43;6.93;;;;;;;;;;5077231;28;20097;-84
2023/10/23 01:34:30;;;;;;;7.25;6.32;;;;;;;;;;5060457;28;20043;-85
2023/10/23 01:36:56;;;;;;;8.02;5.75;;;;;;;;;;5077531;28;20100;-85
2023/10/23 01:39:22;;;;;;;9.25;5.90;;;;;;;;;;5060368;28;20052;-85
2023/10/23 01:41:48;;;;;;;6.82;5.90;;;;;;;;;;5060654;28;20073;-85
2023/10/23 01:44:14;;;;;;;7.88;6.03;;;;;;;;;;5060110;28;20048;-85
2023/10/23 01:46:40;;;;;;;9.05;6.03;;;;;;;;;;5077458;28;20035;-85
2023/10/23 01:49:06;;;;;;;9.23;6.03;;;;;;;;;;5093832;28;20088;-85
2023/10/23 01:51:32;;;;;;;10.45;6.47;;;;;;;;;;5093729;28;20048;-85
2023/10/23 01:53:58;;;;;;;9.40;6.15;;;;;;;;;;5060189;28;20043;-85
2023/10/23 01:56:24;;;;;;;8.52;5.72;;;;;;;;;;5094350;28;20066;-85
2023/10/23 01:58:52;;;;;;;8.68;6.43;;;;;;;;;;5060496;28;20039;-84
2023/10/23 02:01:18;;;;;;;10.65;7.80;;;;;;;;;;5094230;28;20044;-85
2023/10/23 02:03:44;;;;;;;7.35;6.28;;;;;;;;;;5077096;28;20160;-85
2023/10/23 02:06:10;;;;;;;9.32;6.60;;;;;;;;;;5056931;28;20119;-85
2023/10/23 02:08:36;;;;;;;8.93;6.47;;;;;;;;;;5040826;28;20449;-84
2023/10/23 02:11:02;;;;;;;6.80;6.10;;;;;;;;;;5057052;28;20051;-85
2023/10/23 02:13:29;;;;;;;8.48;6.25;;;;;;;;;;5069919;28;20132;-85
2023/10/23 02:15:55;;;;;;;10.73;6.57;;;;;;;;;;5057312;28;20155;-85
2023/10/23 02:18:21;;;;;;;12.18;6.60;;;;;;;;;;5057641;28;20039;-85
2023/10/23 02:20:47;;;;;;;8.52;7.57;;;;;;;;;;5057086;28;20131;-84
2023/10/23 02:23:13;;;;;;;10.85;6.50;;;;;;;;;;5074469;28;20040;-85
2023/10/23 02:25:39;;;;;;;12.70;7.25;;;;;;;;;;5060596;28;20109;-85
2023/10/23 02:28:05;;;;;;;7.97;6.68;;;;;;;;;;5060322;28;20044;-85
2023/10/23 02:30:31;;;;;;;9.30;5.53;;;;;;;;;;5067361;28;20046;-85
2023/10/23 02:32:57;;;;;;;8.65;6.78;;;;;;;;;;5080422;28;20047;-85
2023/10/23 02:35:23;;;;;;;7.18;5.90;;;;;;;;;;5080381;28;20510;-85
2023/10/23 02:37:49;;;;;;;8.02;6.05;;;;;;;;;;5080700;28;20047;-85
2023/10/23 02:40:16;;;;;;;10.85;6.15;;;;;;;;;;5063830;28;20200;-85
2023/10/23 02:42:42;;;;;;;9.50;6.13;;;;;;;;;;5080082;28;20035;-85
2023/10/23 02:45:09;;;;;;;8.95;6.68;;;;;;;;;;5060165;28;20097;-83
2023/10/23 02:47:37;;;;;;;7.97;6.43;;;;;;;;;;5043814;28;20044;-83
2023/10/23 02:50:03;;;;;;;7.60;5.57;;;;;;;;;;5065132;28;20051;-83
2023/10/23 02:52:29;;;;;;;8.70;5.78;;;;;;;;;;5096781;28;20043;-83
2023/10/23 02:54:55;;;;;;;8.10;6.00;;;;;;;;;;5076699;28;20044;-84
2023/10/23 02:57:21;;;;;;;7.25;6.50;;;;;;;;;;5043455;28;20044;-83
2023/10/23 02:59:47;;;;;;;8.80;6.68;;;;;;;;;;5060224;28;20071;-83
2023/10/23 03:02:14;;;;;;;8.95;6.72;;;;;;;;;;5076539;28;20044;-83
2023/10/23 03:04:40;;;;;;;7.13;6.20;;;;;;;;;;5060370;28;20374;-82
2023/10/23 03:07:06;;;;;;;10.43;6.15;;;;;;;;;;5060119;28;20453;-83
2023/10/23 03:09:32;;;;;;;6.40;5.57;;;;;;;;;;5063090;28;20036;-83
2023/10/23 03:11:58;;;;;;;9.55;5.55;;;;;;;;;;5079803;28;20040;-83
2023/10/23 03:14:24;;;;;;;7.57;5.80;;;;;;;;;;5063148;28;20488;-83
2023/10/23 03:16:50;;;;;;;12.13;6.88;;;;;;;;;;5079866;28;20040;-83
2023/10/23 03:19:16;;;;;;;6.75;5.80;;;;;;;;;;5096428;28;20049;-82
2023/10/23 03:21:42;;;;;;;9.25;7.68;;;;;;;;;;5096883;28;20142;-83
2023/10/23 03:24:08;;;;;;;9.35;6.55;;;;;;;;;;5079922;28;20446;-83
2023/10/23 03:26:35;;;;;;;9.27;6.30;;;;;;;;;;5096986;28;20055;-83
2023/10/23 03:29:01;;;;;;;9.98;6.78;;;;;;;;;;5078749;28;20039;-82
2023/10/23 03:31:27;;;;;;;12.05;7.22;;;;;;;;;;5042753;28;20048;-83
2023/10/23 03:33:53;;;;;;;8.88;7.25;;;;;;;;;;5059320;28;20044;-83
2023/10/23 03:36:19;;;;;;;8.40;6.32;;;;;;;;;;5058845;28;20142;-83
2023/10/23 03:38:45;;;;;;;8.52;6.30;;;;;;;;;;5076696;28;20047;-82
2023/10/23 03:41:11;;;;;;;10.70;6.55;;;;;;;;;;5062482;28;20048;-82
2023/10/23 03:43:37;;;;;;;8.45;6.63;;;;;;;;;;5096378;28;20046;-83
2023/10/23 03:46:03;;;;;;;8.45;6.20;;;;;;;;;;5096004;28;20047;-83
2023/10/23 03:48:29;;;;;;;9.57;7.60;;;;;;;;;;5079381;28;20048;-83
2023/10/23 03:50:59;;;;;;;8.27;6.13;;;;;;;;;;5078858;28;20047;-83
2023/10/23 03:53:25;;;;;;;12.05;6.15;;;;;;;;;;5095682;28;20047;-83
2023/10/23 03:55:51;;;;;;;10.65;6.60;;;;;;;;;;5079303;28;20047;-83
2023/10/23 03:58:17;;;;;;;13.50;7.15;;;;;;;;;;5095488;28;20043;-83
2023/10/23 04:00:43;;;;;;;11.13;6.50;;;;;;;;;;5075382;28;20040;-83
2023/10/23 04:03:11;;;;;;;7.72;6.57;;;;;;;;;;5078034;28;20052;-83
2023/10/23 04:05:43;;;;;;;10.18;7.22;;;;;;;;;;5079161;28;20441;-83
2023/10/23 04:08:09;;;;;;;9.70;6.78;;;;;;;;;;5079168;28;20096;-84
2023/10/23 04:10:35;;;;;;;12.93;6.45;;;;;;;;;;5078421;28;20059;-84
2023/10/23 04:13:01;;;;;;;8.88;5.60;;;;;;;;;;5078552;28;20124;-84
2023/10/23 04:15:28;;;;;;;7.90;6.30;;;;;;;;;;5095482;28;20089;-83
2023/10/23 04:17:54;;;;;;;10.43;6.50;;;;;;;;;;5078967;28;20087;-83
2023/10/23 04:20:20;;;;;;;8.60;7.15;;;;;;;;;;5062152;28;20036;-83
2023/10/23 04:22:46;;;;;;;9.82;7.13;;;;;;;;;;5061195;28;20043;-85
2023/10/23 04:25:12;;;;;;;9.77;7.05;;;;;;;;;;5061241;28;20039;-83
2023/10/23 04:27:38;;;;;;;10.00;6.93;;;;;;;;;;5078288;28;20096;-83
2023/10/23 04:30:04;;;;;;;9.65;8.10;;;;;;;;;;5078561;28;20035;-83
2023/10/23 04:32:31;;;;;;;12.35;7.90;;;;;;;;;;5078179;28;20050;-83
2023/10/23 04:34:57;;;;;;;12.48;7.38;;;;;;;;;;5078719;28;20043;-83
2023/10/23 04:37:23;;;;;;;12.02;7.65;;;;;;;;;;5061701;28;20058;-82
2023/10/23 04:39:49;;;;;;;9.93;6.95;;;;;;;;;;5094727;28;20085;-83
2023/10/23 04:42:15;;;;;;;10.27;7.47;;;;;;;;;;5061425;28;20052;-84
2023/10/23 04:44:41;;;;;;;9.25;7.57;;;;;;;;;;5094892;28;20373;-84
2023/10/23 04:47:07;;;;;;;12.45;7.78;;;;;;;;;;5077043;28;20044;-83
2023/10/23 04:49:33;;;;;;;8.38;6.97;;;;;;;;;;5074145;28;20039;-83
2023/10/23 04:51:59;;;;;;;11.43;8.05;;;;;;;;;;5057931;28;20138;-83
2023/10/23 04:54:25;;;;;;;12.80;7.57;;;;;;;;;;5074446;28;20040;-83
2023/10/23 04:56:51;;;;;;;9.75;7.30;;;;;;;;;;5041290;28;20040;-83
2023/10/23 04:59:17;;;;;;;10.57;7.07;;;;;;;;;;5070626;28;20488;-84
2023/10/23 05:01:43;;;;;;;10.18;7.57;;;;;;;;;;5057414;28;20081;-83
2023/10/23 05:04:09;;;;;;;10.18;6.50;;;;;;;;;;5057740;28;20522;-83
2023/10/23 05:06:36;;;;;;;10.05;6.72;;;;;;;;;;5041236;28;20497;-83
2023/10/23 05:09:02;;;;;;;11.23;7.45;;;;;;;;;;5041405;28;20048;-82
2023/10/23 05:11:29;;;;;;;12.05;6.97;;;;;;;;;;5047579;28;20043;-83
2023/10/23 05:13:55;;;;;;;10.82;7.63;;;;;;;;;;5057720;28;20396;-83
2023/10/23 05:16:21;;;;;;;8.05;7.03;;;;;;;;;;5067585;28;20044;-83
2023/10/23 05:18:47;;;;;;;10.65;6.93;;;;;;;;;;5077504;28;20042;-83
2023/10/23 05:21:13;;;;;;;9.80;6.75;;;;;;;;;;5061032;28;20039;-83
2023/10/23 05:23:40;;;;;;;10.90;7.60;;;;;;;;;;5077601;28;20523;-83
2023/10/23 05:26:07;;;;;;;11.05;7.95;;;;;;;;;;5078559;28;20513;-83
2023/10/23 05:28:33;;;;;;;13.98;8.02;;;;;;;;;;5078265;28;20048;-84
2023/10/23 05:30:59;;;;;;;9.45;8.10;;;;;;;;;;5094700;28;20092;-85
2023/10/23 05:33:25;;;;;;;10.00;6.78;;;;;;;;;;5097808;28;20044;-85
2023/10/23 05:36:00;;;;;;;8.82;6.30;;;;;;;;;;5080152;28;20126;-85
2023/10/23 05:38:26;;;;;;;10.73;7.07;;;;;;;;;;5094600;28;20055;-85
2023/10/23 05:40:58;;;;;;;6.95;5.95;;;;;;;;;;5077456;28;20087;-84
2023/10/23 05:43:26;;;;;;;10.77;6.07;;;;;;;;;;5077004;28;20039;-85
2023/10/23 05:45:52;;;;;;;8.93;6.97;;;;;;;;;;5077237;28;20044;-85
2023/10/23 05:48:18;;;;;;;9.52;7.32;;;;;;;;;;5077225;28;20044;-85
2023/10/23 05:50:44;;;;;;;10.80;6.22;;;;;;;;;;5060495;28;20503;-84
2023/10/23 05:53:10;;;;;;;8.38;6.88;;;;;;;;;;5060959;28;20074;-84
2023/10/23 05:55:36;;;;;;;7.60;6.68;;;;;;;;;;5077310;28;20039;-84
2023/10/23 05:58:02;;;;;;;8.57;5.93;;;;;;;;;;5061273;28;20043;-85
2023/10/23 06:00:29;;;;;;;8.75;5.50;;;;;;;;;;5080936;28;20089;-83
2023/10/23 06:02:55;;;;;;;6.45;5.07;;;;;;;;;;5080956;28;20078;-83
2023/10/23 06:05:21;;;;;;;6.80;5.00;;;;;;;;;;5081098;28;20062;-83
2023/10/23 06:07:47;;;;;;;6.82;5.15;;;;;;;;;;5081016;28;20126;-84
2023/10/23 06:10:13;;;;;;;5.80;4.88;;;;;;;;;;5080498;28;20089;-83
2023/10/23 06:12:39;;;;;;;7.60;5.85;;;;;;;;;;5097220;28;20058;-83
2023/10/23 06:15:05;;;;;;;7.07;5.40;;;;;;;;;;5064259;28;20040;-83
2023/10/23 06:17:31;;;;;;;10.57;6.10;;;;;;;;;;5081204;28;20039;-83
2023/10/23 06:19:59;;;;;;;7.57;5.15;;;;;;;;;;5097566;28;20043;-84
2023/10/23 06:22:25;;;;;;;7.85;5.45;;;;;;;;;;5080682;28;20484;-83
2023/10/23 06:24:51;;;;;;;6.18;5.07;;;;;;;;;;5097477;28;20519;-83
2023/10/23 06:27:17;;;;;;;5.80;4.63;;;;;;;;;;5097888;28;20127;-83
2023/10/23 06:29:43;;;;;;;5.85;4.88;;;;;;;;;;5080758;28;20057;-83
2023/10/23 06:32:12;;;;;;;7.15;5.28;;;;;;;;;;5096963;28;20047;-83
2023/10/23 06:34:38;;;;;;;7.15;4.65;;;;;;;;;;5080557;28;20365;-83
2023/10/23 06:37:04;;;;;;;5.88;5.25;;;;;;;;;;5080800;28;20484;-83
2023/10/23 06:39:30;;;;;;;8.40;5.60;;;;;;;;;;5080732;28;20052;-83
2023/10/23 06:41:56;;;;;;;7.07;5.80;;;;;;;;;;5063367;28;20490;-84
2023/10/23 06:44:22;;;;;;;6.38;5.72;;;;;;;;;;5080645;28;20036;-83
2023/10/23 06:46:48;;;;;;;6.10;5.50;;;;;;;;;;5063660;28;20044;-83
2023/10/23 06:49:14;;;;;;;6.40;5.72;;;;;;;;;;5080712;28;20070;-82
2023/10/23 06:51:41;;;;;;;7.85;5.78;;;;;;;;;;5080247;28;20036;-84
2023/10/23 06:54:07;;;;;;;7.00;5.95;;;;;;;;;;5080226;28;20097;-83
2023/10/23 06:56:33;;;;;;;7.07;5.82;;;;;;;;;;5080318;28;20044;-83
2023/10/23 06:58:59;;;;;;;8.25;6.72;;;;;;;;;;5063568;28;20054;-84
2023/10/23 07:01:25;;;;;;;9.40;6.00;;;;;;;;;;5096620;28;20061;-83
2023/10/23 07:03:51;;;;;;;13.23;6.65;;;;;;;;;;5080066;28;20053;-83
2023/10/23 07:06:17;;;;;;;8.07;6.30;;;;;;;;;;5079495;28;20075;-84
2023/10/23 07:08:44;;;;;;;8.52;7.15;;;;;;;;;;5063196;28;20148;-84
2023/10/23 07:11:13;;;;;;;7.22;5.40;;;;;;;;;;5095521;28;20070;-83
2023/10/23 07:13:40;;;;;;;7.18;5.63;;;;;;;;;;5063245;28;20043;-84
2023/10/23 07:16:06;;;;;;;6.03;5.35;;;;;;;;;;5063471;28;20113;-84
2023/10/23 07:18:32;;;;;;;6.13;5.43;;;;;;;;;;5079183;28;20093;-84
2023/10/23 07:21:02;;;;;;;8.80;5.25;;;;;;;;;;5080078;28;20027;-83
2023/10/23 07:23:31;;;;;;;7.55;6.38;;;;;;;;;;5096649;28;20458;-84
2023/10/23 07:26:08;;;;;;;7.70;6.20;;;;;;;;;;5096295;28;20046;-84
2023/10/23 07:28:34;;;;;;;10.68;6.95;;;;;;;;;;5079256;28;20079;-83
2023/10/23 07:31:04;;;;;;;8.23;6.60;;;;;;;;;;5078984;28;20583;-83
2023/10/23 07:33:30;;;;;;;7.15;5.95;;;;;;;;;;5062782;28;20042;-84
2023/10/23 07:36:06;;;;;;;8.63;6.32;;;;;;;;;;5096526;28;20441;-85
2023/10/23 07:38:33;;;;;;;7.40;6.20;;;;;;;;;;5079635;28;20043;-84
2023/10/23 07:40:59;;;;;;;9.32;7.78;;;;;;;;;;5078763;28;20048;-85
2023/10/23 07:43:29;;;;;;;11.73;7.65;;;;;;;;;;5078915;28;20051;-85
2023/10/23 07:45:55;;;;;;;9.80;8.07;;;;;;;;;;5079057;28;20040;-84
2023/10/23 07:48:22;;;;;;;12.48;8.05;;;;;;;;;;5095899;28;20044;-85
2023/10/23 07:50:48;;;;;;;10.57;8.20;;;;;;;;;;5079161;28;20497;-84
2023/10/23 07:53:14;;;;;;;10.15;8.52;;;;;;;;;;5062349;28;20058;-83
2023/10/23 07:55:40;;;;;;;8.98;7.47;;;;;;;;;;5095513;28;20043;-83
2023/10/23 07:58:06;;;;;;;15.90;9.40;;;;;;;;;;5095199;28;20781;-83
2023/10/23 08:00:33;;;;;;;11.65;7.65;;;;;;;;;;5096078;28;20040;-83
2023/10/23 08:02:59;;;;;;;12.52;8.75;;;;;;;;;;5079022;28;20134;-82
2023/10/23 08:05:25;;;;;;;10.65;8.23;;;;;;;;;;5096125;28;20048;-83
2023/10/23 08:07:51;;;;;;;13.48;9.35;;;;;;;;;;5078649;28;20169;-83
2023/10/23 08:10:18;;;;;;;13.55;9.98;;;;;;;;;;5095387;28;20056;-82
2023/10/23 08:12:46;;;;;;;12.40;9.15;;;;;;;;;;5095522;28;20053;-83
2023/10/23 08:15:12;;;;;;;10.98;8.65;;;;;;;;;;5078728;28;20043;-82
2023/10/23 08:17:38;;;;;;;11.43;8.95;;;;;;;;;;5095804;28;20074;-83
2023/10/23 08:20:05;;;;;;;15.95;9.77;;;;;;;;;;5095059;28;20050;-82
2023/10/23 08:22:31;;;;;;;15.75;10.40;;;;;;;;;;5061507;28;20048;-82
2023/10/23 08:24:57;;;;;;;13.95;10.23;;;;;;;;;;5095393;28;20044;-82
2023/10/23 08:27:24;;;;;;;13.98;9.30;;;;;;;;;;5095177;28;20067;-83
2023/10/23 08:29:51;;;;;;;11.30;9.15;;;;;;;;;;5061725;28;20086;-83
2023/10/23 08:32:17;;;;;;;13.60;9.73;;;;;;;;;;5077804;28;20104;-82
2023/10/23 08:34:43;;;;;;;12.73;9.13;;;;;;;;;;5061726;28;20126;-83
2023/10/23 08:37:09;;;;;;;13.68;9.93;;;;;;;;;;5078487;28;20036;-82
2023/10/23 08:39:35;;;;;;;15.13;9.52;;;;;;;;;;5094854;28;20051;-82
2023/10/23 08:42:01;;;;;;;14.52;9.35;;;;;;;;;;5094749;28;20097;-82
2023/10/23 08:44:27;;;;;;;14.45;10.55;;;;;;;;;;5094985;28;20044;-83
2023/10/23 08:46:53;;;;;;;13.55;9.93;;;;;;;;;;5077895;28;20390;-82
2023/10/23 08:49:19;;;;;;;20.80;10.07;;;;;;;;;;5061450;28;20055;-83
2023/10/23 08:51:49;;;;;;;13.05;10.45;;;;;;;;;;5094839;28;20442;-83
2023/10/23 08:54:19;;;;;;;13.20;10.73;;;8.30;76.60;;;;;;5094618;28;20036;-82
2023/10/23 08:56:51;;;;;;;16.95;11.07;;;;;;;;;;5061372;28;20132;-83
2023/10/23 08:59:18;;;;;;;17.67;11.52;;;;;;;;;;5077141;28;20039;-83
2023/10/23 09:01:45;;;;;;;18.60;10.70;;;;;;;;;;5061468;28;20195;-82
2023/10/23 09:04:11;;;;;;;17.08;11.15;;;;;;;;;;5094479;28;20138;-82
2023/10/23 09:06:37;;;;;;;16.67;10.57;;;;;;;;;;5093883;28;20454;-82
2023/10/23 09:09:05;;;;;;;13.73;10.15;;;;;;;;;;5094126;28;20047;-82
2023/10/23 09:11:41;;;;;;;14.38;10.75;;;;;;;;;;5094153;28;20127;-81
2023/10/23 09:14:08;;;;;;;11.88;9.43;;;;;;;;;;5094263;28;20047;-82
2023/10/23 09:16:34;;;;;;;10.20;8.20;;;;;;;;;;5094287;28;20055;-82
2023/10/23 09:19:00;;;;;;;13.82;10.05;;;;;;;;;;5094262;28;20043;-82
2023/10/23 09:21:26;;;;;;;12.23;9.68;;;;;;;;;;5060694;28;20531;-82
2023/10/23 09:23:58;;;;;;;11.20;8.30;;;9.20;81.20;;;;;;5057452;28;20485;-81
2023/10/23 09:26:24;;;;;;;13.15;9.05;;;;;;;;;;5057315;28;20055;-81
2023/10/23 09:28:52;;;;;;;9.95;8.23;;;9.20;72.90;;;;;;5057039;28;20040;-82
2023/10/23 09:31:19;;;;;;;10.88;8.77;;;;;;;;;;5057216;28;20497;-82
2023/10/23 09:33:45;;;;;;;12.60;8.57;;;;;;;;;;5073372;28;20048;-82
2023/10/23 09:36:12;;;;;;;18.67;8.68;;;9.30;77.80;;;;;;5085135;28;20040;-82
2023/10/23 09:38:41;;;;;;;15.00;9.82;;;;;;;;;;5077366;28;20055;-82
2023/10/23 09:41:11;;;;;;;10.88;8.82;;;;;;;;;;5094045;28;20051;-81
2023/10/23 09:43:46;;;;;;;14.70;8.27;;;;;;;;;;5077878;28;20514;-83
2023/10/23 09:46:13;;;;;;;10.18;8.25;;;;;;;;;;5076919;28;20058;-83
2023/10/23 09:48:41;;;;;;;9.55;7.35;;;9.70;83.20;;;;;;5093809;28;20067;-82
2023/10/23 09:51:12;;;;;;;10.57;7.45;;;;;;;;;;5077477;28;20044;-81
2023/10/23 09:53:39;;;;;;;10.10;7.75;;;;;;;;;;5077640;28;20107;-81
2023/10/23 09:56:06;;;;;;;14.10;8.75;;;;;;;;;;5094942;28;20040;-82
2023/10/23 09:58:37;;;;;;;9.05;7.72;;;;;;;;;;5093983;28;20105;-82
2023/10/23 10:01:05;;;;;;;10.60;8.70;;;;;;;;;;5093742;28;20067;-82
2023/10/23 10:03:35;;;;;;;10.05;7.38;;;;;;;;;;5076896;28;20062;-82
2023/10/23 10:06:09;;;;;;;12.13;7.18;;;;;;;;;;5094207;28;20173;-82
2023/10/23 10:08:37;;;;;;;11.57;7.90;;;;;;;;;;5093984;28;20043;-83
2023/10/23 10:11:05;;;;;;;8.57;7.60;;;;;;;;;;5077339;28;20118;-82
2023/10/23 10:13:32;;;;;;;9.95;7.18;;;;;;;;;;5060929;28;20450;-82
2023/10/23 10:15:59;;;;;;;8.80;7.15;;;;;;;;;;5094003;28;20147;-82
2023/10/23 10:18:26;;;;;;;11.20;7.55;;;10.60;83.70;;;;;;5077112;28;20138;-82
2023/10/23 10:20:56;;;;;;;8.38;6.85;;;;;;;;;;5043911;28;20094;-83
2023/10/23 10:23:22;;;;;;;10.45;7.68;;;;;;;;;;5093198;28;20040;-83
2023/10/23 10:25:49;;;;;;;9.18;7.25;;;;;;;;;;5093409;28;20046;-81
2023/10/23 10:28:15;;;;;;;6.55;5.80;;;;;;;;;;5077024;28;20077;-82
2023/10/23 10:30:50;;;;;;;9.18;6.25;;;11.10;82.30;;;;;;5076623;28;20052;-82
2023/10/23 10:33:21;;;;;;;8.10;6.13;;;;;;;;;;5077109;28;20048;-83
2023/10/23 10:35:58;;;;;;;9.02;5.93;;;11.10;84.50;;;;;;5076597;28;20035;-82
2023/10/23 10:38:26;;;;;;;11.75;5.90;;;11.20;82.90;;;;;;5077110;28;20163;-83
2023/10/23 10:40:59;;;;;;;6.25;5.30;;;;;;;;;;5076483;28;20397;-82
2023/10/23 10:43:29;;;;;;;7.85;5.55;;;11.60;82.20;;;;;;5093885;28;20054;-82
2023/10/23 10:45:55;;;;;;;11.43;5.22;;;;;;;;;;5080435;28;20666;-82
2023/10/23 10:48:25;;;;;;;6.22;5.28;;;;;;;;;;5097512;28;20058;-82
2023/10/23 10:50:54;;;;;;;10.13;5.80;;;11.60;80.60;;;;;;5096942;28;20054;-82
2023/10/23 10:53:22;;;;;;;8.38;5.88;;;;;;;;;;5080096;28;20105;-82
2023/10/23 10:55:48;;;;;;;7.28;5.32;;;;;;;;;;5097100;28;20097;-82
2023/10/23 10:58:18;;;;;;;8.25;5.80;;;11.80;94.80;;;;;;5063181;28;20047;-82
2023/10/23 11:00:45;;;;;;;8.23;4.60;;;11.70;79.30;;;;;;5079812;28;20035;-82
2023/10/23 11:03:11;;;;;;;5.05;4.55;;;;;;;;;;5079754;28;20039;-82
2023/10/23 11:05:39;;;;;;;4.47;3.97;;;;;;;;;;5080141;28;20496;-82
2023/10/23 11:08:06;;;;;;;6.97;4.38;;;;;;;;;;5080782;28;20043;-81
2023/10/23 11:10:32;;;;;;;4.93;4.43;;;;;;;;;;5096885;28;20056;-81
2023/10/23 11:12:59;;;;;;;3.92;3.10;;;;;;;;;;5079864;28;20069;-82
2023/10/23 11:15:25;;;;;;;4.25;3.15;;;;;;;;;;5079722;28;20515;-82
2023/10/23 11:17:52;;;;;;;3.45;3.15;;;;;;;;;;5079854;28;20135;-83
2023/10/23 11:20:18;;;;;;;3.40;3.10;;;;;;;;;;5063094;28;20134;-82
2023/10/23 11:22:45;;;;;;;3.22;2.85;;;;;;;;;;5059710;28;20048;-82
2023/10/23 11:25:12;;;;;;;3.45;3.00;;;12.50;65.60;;;;;;5076534;28;20408;-82
2023/10/23 11:27:39;;;;;;;5.25;3.05;;;;;;;;;;5076186;28;20111;-82
2023/10/23 11:30:06;;;;;;;4.72;2.75;;;;;;;;;;5076444;28;20119;-81
2023/10/23 11:32:33;;;;;;;2.97;2.60;;;;;;;;;;5059632;28;20044;-82
2023/10/23 11:35:04;;;;;;;4.68;3.00;;;12.70;68.80;;;;;;5078527;28;20123;-82
2023/10/23 11:37:48;;;;;;;4.15;3.03;;;;;;;;;;5063285;28;20454;-82
2023/10/23 11:40:20;;;;;;;3.88;2.30;;;12.70;64.50;;;;;;5079227;28;20564;-82
2023/10/23 11:42:48;;;;;;;4.72;2.45;;;;;;;;;;5096068;28;20044;-81
2023/10/23 11:45:20;;;;;;;2.08;1.80;;;;;;;;;;5095679;28;20407;-82
2023/10/23 11:47:46;;;;;;;3.60;2.00;;;;;;;;;;5079492;28;20468;-82
2023/10/23 11:50:13;;;;;;;2.35;2.03;;;;;;;;;;5078838;28;20134;-82
2023/10/23 11:52:44;;;;;;;4.32;2.22;;;13.00;56.80;;;;;;5095666;28;20048;-82
2023/10/23 11:55:19;;;;;;;2.55;2.35;;;;;;;;;;5078993;28;20071;-82
2023/10/23 11:57:48;;;;;;;3.90;2.38;;;12.80;53.50;;;;;;5078664;28;20055;-82
2023/10/23 12:00:15;;;;;;;4.85;2.58;;;13.10;52.80;;;;;;5096156;28;20044;-83
2023/10/23 12:02:42;;;;;;;3.80;2.40;;;;;;;;;;5079001;28;20561;-83
2023/10/23 12:05:13;;;;;;;3.65;2.35;;;13.10;51.20;;;;;;5095893;28;20109;-81
2023/10/23 12:07:39;;;;;;;4.10;1.92;;;;;;;;;;5113976;28;20040;-82
2023/10/23 12:10:08;;;;;;;2.95;2.45;;;13.10;48.80;;;;;;5114093;28;20035;-83
2023/10/23 12:12:34;;;;;;;2.80;2.38;;;;;;;;;;5095614;28;20044;-82
2023/10/23 12:15:00;;;;;;;1.70;1.60;;;;;;;;;;5062461;28;20047;-83
2023/10/23 12:17:26;;;;;;;4.57;1.92;;;;;;;;;;5095540;28;20044;-81
2023/10/23 12:19:52;;;;;;;2.50;1.63;;;;;;;;;;5078187;28;20057;-81
2023/10/23 12:22:18;;;;;;;4.35;1.60;;;;;;;;;;5090384;28;20434;-81
2023/10/23 12:24:44;;;;;;;3.83;1.42;;;;;;;;;;5072124;28;20048;-81
2023/10/23 12:27:10;;;;;;;2.25;1.30;;;;;;;;;;5065340;28;20132;-82
2023/10/23 12:29:36;;;;;;;3.35;1.40;;;;;;;;;;5082266;28;20385;-81
2023/10/23 12:32:04;;;;;;;4.10;1.77;;;;;;;;;;5064156;28;20130;-81
2023/10/23 12:34:30;;;;;;;2.63;1.38;;;;;;;;;;5081505;28;20224;-81
2023/10/23 12:36:57;;;;;;;2.20;1.52;;;;;;;;;;5065918;28;20058;-81
2023/10/23 12:39:25;;;;;;;2.53;1.42;;;;;;;;;;5082413;28;20039;-82
2023/10/23 12:41:58;;;;;;;3.42;1.85;;;;;;;;;;5104171;28;20040;-80
2023/10/23 12:44:25;;;;;;;4.82;1.70;;;;;;;;;;5095107;28;20050;-81
2023/10/23 12:46:51;;;;;;;2.67;1.60;;;;;;;;;;5113099;28;20052;-81
2023/10/23 12:49:17;;;;;;;2.17;1.70;;;;;;;;;;5094897;28;20070;-81
2023/10/23 12:51:43;;;;;;;2.13;1.67;;;;;;;;;;5094572;28;20134;-81
2023/10/23 12:54:10;;;;;;;2.42;2.00;;;;;;;;;;5094385;28;20053;-81
2023/10/23 12:56:37;;;;;;;2.42;1.70;;;;;;;;;;5095290;28;20048;-81
2023/10/23 12:59:03;;;;;;;3.33;2.58;;;;;;;;;;5077945;28;20511;-81
2023/10/23 13:01:29;;;;;;;4.15;3.03;;;;;;;;;;5077909;28;20052;-80
2023/10/23 13:03:55;;;;;;;4.97;3.10;;;;;;;;;;5094481;28;20051;-81
2023/10/23 13:06:21;;;;;;;2.97;2.75;;;;;;;;;;5061731;28;20035;-81
2023/10/23 13:08:47;;;;;;;4.30;3.47;;;;;;;;;;5077108;28;20040;-82
2023/10/23 13:11:13;;;;;;;2.13;1.92;;;;;;;;;;5061343;28;20035;-81
2023/10/23 13:13:40;;;;;;;5.32;3.15;;;;;;;;;;5077230;28;20051;-81
2023/10/23 13:16:06;;;;;;;5.28;3.28;;;;;;;;;;5077583;28;20047;-81
2023/10/23 13:18:32;;;;;;;5.35;3.17;;;;;;;;;;5060861;28;20051;-82
2023/10/23 13:20:57;;;;;;;4.82;3.72;;;13.70;42.20;;;;;;5078012;28;20109;-82
2023/10/23 13:23:23;;;;;;;3.92;3.53;;;;;;;;;;5077583;28;20423;-82
2023/10/23 13:25:51;;;;;;;7.72;3.92;;;;;;;;;;5077307;28;20130;-82
2023/10/23 13:28:17;;;;;;;7.32;4.50;;;;;;;;;;5077985;28;20126;-82
2023/10/23 13:30:43;;;;;;;6.75;4.60;;;;;;;;;;5061236;28;20518;-82
2023/10/23 13:33:09;;;;;;;7.55;5.50;;;;;;;;;;5094533;28;20130;-80
2023/10/23 13:35:36;;;;;;;6.80;4.72;;;;;;;;;;5077425;28;20089;-81
2023/10/23 13:38:03;;;;;;;5.85;5.13;;;;;;;;;;5094208;28;20043;-82
2023/10/23 13:40:35;;;;;;;6.35;4.50;;;;;;;;;;5062450;28;20093;-81
2023/10/23 13:43:02;;;;;;;5.72;5.03;;;;;;;;;;5094066;28;20127;-81
2023/10/23 13:45:34;;;;;;;5.72;4.75;;;;;;;;;;5076891;28;20595;-84
2023/10/23 13:48:01;;;;;;;6.20;4.03;;;;;;;;;;5074442;28;20485;-84
2023/10/23 13:50:27;;;;;;;7.55;4.63;;;;;;;;;;5073648;28;20039;-84
2023/10/23 13:52:53;;;;;;;6.43;4.18;;;;;;;;;;5061326;28;20086;-84
2023/10/23 13:55:20;;;;;;;7.40;4.38;;;;;;;;;;5094703;28;20134;-84
2023/10/23 13:57:47;;;;;;;6.90;4.40;;;;;;;;;;5077711;28;20048;-84
2023/10/23 14:00:14;;;;;;;8.18;4.40;;;;;;;;;;5077795;28;20068;-83
2023/10/23 14:02:40;;;;;;;4.88;3.80;;;;;;;;;;5078028;28;20515;-84
2023/10/23 14:05:07;;;;;;;8.43;4.72;;;;;;;;;;5094619;28;20043;-84
2023/10/23 14:07:36;;;;;;;4.88;3.92;;;;;;;;;;5112675;28;20040;-84
2023/10/23 14:10:02;;;;;;;7.00;3.60;;;;;;;;;;5094981;28;20561;-84
2023/10/23 14:12:29;;;;;;;7.95;3.72;;;;;;;;;;5095325;28;20036;-84
2023/10/23 14:14:55;;;;;;;6.13;3.05;;;;;;;;;;5097466;28;20035;-84
2023/10/23 14:17:21;;;;;;;4.38;3.70;;;;;;;;;;5126560;28;20043;-84
2023/10/23 14:19:47;;;;;;;6.40;4.63;;;13.50;22.20;;;;;;5098633;28;20131;-85
2023/10/23 14:22:13;;;;;;;10.60;4.95;;;;;;;;;;5098147;27;20032;-84
2023/10/23 14:24:39;;;;;;;9.32;4.80;;;;;;;;;;5115101;28;20050;-84
2023/10/23 14:27:06;;;;;;;8.57;5.15;;;;;;;;;;5098560;28;20040;-82
2023/10/23 14:29:32;;;;;;;5.85;4.30;;;;;;;;;;5117816;28;20492;-84